WAT224 KABQ-KJAX
Flight info
| Callsign | WAT224 |
|---|---|
| Flight time | 2h 36m |
| Altitude | 41000 |
| Route | GRZZZ4 POPRR TCC MDANO RBUKL/N0483F450 PRX OCOSA WARHK KEENY EDN CABLO CAPPS ZOOSS MARQO3 |
| Aircraft | C750/M-SBDE3FGHRWXY/S |
Departure
| Time | 2026-05-04 07:12 |
|---|---|
| Airport | Albuquerque International Sunport (KABQ) |
Arrival
| Time | 2026-05-04 09:49 |
|---|---|
| Airport | Jacksonville International Airport (KJAX) |
| Time | Latitude | Longitude | Altitude | Speed | Heading |
|---|---|---|---|---|---|
| 2026-05-04 07:03 | 35.03774 | -106.61991 | 5318 ft | 0 kts | 288° |
| 2026-05-04 07:05 | 35.03774 | -106.61992 | 5318 ft | 0 kts | 290° |
| 2026-05-04 07:06 | 35.03779 | -106.61996 | 5311 ft | 1 kts | 323° |
| 2026-05-04 07:06 | 35.03784 | -106.61994 | 5313 ft | 1 kts | 17° |
| 2026-05-04 07:06 | 35.03794 | -106.61988 | 5318 ft | 3 kts | 24° |
| 2026-05-04 07:07 | 35.03826 | -106.61980 | 5314 ft | 5 kts | 339° |
| 2026-05-04 07:08 | 35.04139 | -106.62152 | 5315 ft | 12 kts | 359° |
| 2026-05-04 07:09 | 35.04182 | -106.62147 | 5318 ft | 0 kts | 7° |
| 2026-05-04 07:10 | 35.04190 | -106.62146 | 5316 ft | 4 kts | 7° |
| 2026-05-04 07:12 | 35.04419 | -106.58703 | 5947 ft | 166 kts | 94° |
| 2026-05-04 07:12 | 35.04441 | -106.57288 | 6533 ft | 169 kts | 92° |
| 2026-05-04 07:12 | 35.04525 | -106.55803 | 6958 ft | 184 kts | 89° |
| 2026-05-04 07:12 | 35.04695 | -106.54178 | 7368 ft | 208 kts | 82° |
| 2026-05-04 07:13 | 35.05397 | -106.52601 | 8219 ft | 205 kts | 43° |
| 2026-05-04 07:13 | 35.06568 | -106.51731 | 9108 ft | 195 kts | 13° |
| 2026-05-04 07:13 | 35.07886 | -106.51567 | 9790 ft | 189 kts | 342° |
| 2026-05-04 07:14 | 35.12266 | -106.54778 | 12521 ft | 188 kts | 324° |
| 2026-05-04 07:14 | 35.13406 | -106.55546 | 13244 ft | 187 kts | 323° |
| 2026-05-04 07:15 | 35.14545 | -106.56319 | 13950 ft | 188 kts | 323° |
| 2026-05-04 07:15 | 35.15693 | -106.57096 | 14442 ft | 189 kts | 323° |
| 2026-05-04 07:15 | 35.16835 | -106.57868 | 15101 ft | 187 kts | 323° |
| 2026-05-04 07:15 | 35.17969 | -106.58642 | 15755 ft | 187 kts | 323° |
| 2026-05-04 07:16 | 35.19102 | -106.59409 | 16415 ft | 186 kts | 323° |
| 2026-05-04 07:16 | 35.20375 | -106.59897 | 16983 ft | 205 kts | 350° |
| 2026-05-04 07:16 | 35.21818 | -106.59699 | 17662 ft | 209 kts | 0° |
| 2026-05-04 07:16 | 35.23248 | -106.59451 | 18322 ft | 207 kts | 358° |
| 2026-05-04 07:17 | 35.24676 | -106.59225 | 18902 ft | 206 kts | 357° |
| 2026-05-04 07:17 | 35.26097 | -106.59000 | 19464 ft | 207 kts | 358° |
| 2026-05-04 07:17 | 35.27525 | -106.58760 | 20044 ft | 208 kts | 357° |
| 2026-05-04 07:17 | 35.28929 | -106.58135 | 20526 ft | 231 kts | 28° |
| 2026-05-04 07:18 | 35.30065 | -106.56671 | 21105 ft | 240 kts | 44° |
| 2026-05-04 07:18 | 35.31100 | -106.55080 | 21740 ft | 238 kts | 44° |
| 2026-05-04 07:18 | 35.32146 | -106.53507 | 22350 ft | 238 kts | 42° |
| 2026-05-04 07:18 | 35.33203 | -106.51937 | 22943 ft | 239 kts | 42° |
| 2026-05-04 07:19 | 35.34261 | -106.50357 | 23518 ft | 241 kts | 42° |
| 2026-05-04 07:19 | 35.35281 | -106.48712 | 23960 ft | 250 kts | 55° |
| 2026-05-04 07:19 | 35.35715 | -106.46557 | 24229 ft | 269 kts | 85° |
| 2026-05-04 07:19 | 35.35805 | -106.44286 | 24809 ft | 265 kts | 85° |
| 2026-05-04 07:20 | 35.35927 | -106.42041 | 25327 ft | 264 kts | 83° |
| 2026-05-04 07:20 | 35.36068 | -106.39793 | 25800 ft | 265 kts | 83° |
| 2026-05-04 07:20 | 35.36198 | -106.37530 | 26249 ft | 267 kts | 83° |
| 2026-05-04 07:20 | 35.36323 | -106.35248 | 26687 ft | 270 kts | 83° |
| 2026-05-04 07:22 | 35.37243 | -106.18819 | 29780 ft | 284 kts | 82° |
| 2026-05-04 07:22 | 35.37375 | -106.16400 | 30167 ft | 286 kts | 82° |
| 2026-05-04 07:23 | 35.37507 | -106.13988 | 30500 ft | 289 kts | 82° |
| 2026-05-04 07:23 | 35.37639 | -106.11520 | 30821 ft | 291 kts | 82° |
| 2026-05-04 07:23 | 35.37775 | -106.09038 | 31146 ft | 293 kts | 82° |
| 2026-05-04 07:23 | 35.37912 | -106.06534 | 31467 ft | 296 kts | 82° |
| 2026-05-04 07:24 | 35.38046 | -106.04002 | 31784 ft | 298 kts | 82° |
| 2026-05-04 07:24 | 35.38181 | -106.01457 | 32093 ft | 301 kts | 82° |
| 2026-05-04 07:24 | 35.38324 | -105.98884 | 32418 ft | 304 kts | 82° |
| 2026-05-04 07:24 | 35.38463 | -105.96289 | 32733 ft | 307 kts | 82° |
| 2026-05-04 07:25 | 35.38598 | -105.93674 | 32969 ft | 309 kts | 82° |
| 2026-05-04 07:26 | 35.39526 | -105.74726 | 34908 ft | 328 kts | 81° |
| 2026-05-04 07:27 | 35.39644 | -105.71918 | 35157 ft | 331 kts | 81° |
| 2026-05-04 07:27 | 35.39758 | -105.69088 | 35402 ft | 334 kts | 81° |
| 2026-05-04 07:27 | 35.39868 | -105.66236 | 35635 ft | 337 kts | 81° |
| 2026-05-04 07:27 | 35.39976 | -105.63348 | 35875 ft | 340 kts | 81° |
| 2026-05-04 07:28 | 35.40079 | -105.60450 | 36158 ft | 341 kts | 81° |
| 2026-05-04 07:28 | 35.40176 | -105.57539 | 36410 ft | 343 kts | 81° |
| 2026-05-04 07:28 | 35.40270 | -105.54602 | 36633 ft | 346 kts | 81° |
| 2026-05-04 07:28 | 35.40361 | -105.51645 | 36868 ft | 349 kts | 80° |
| 2026-05-04 07:29 | 35.40450 | -105.48664 | 37085 ft | 351 kts | 80° |
| 2026-05-04 07:29 | 35.40536 | -105.45658 | 37301 ft | 355 kts | 80° |
| 2026-05-04 07:29 | 35.40619 | -105.42621 | 37533 ft | 358 kts | 80° |
| 2026-05-04 07:29 | 35.40701 | -105.39561 | 37775 ft | 361 kts | 79° |
| 2026-05-04 07:30 | 35.40779 | -105.36474 | 38019 ft | 363 kts | 79° |
| 2026-05-04 07:30 | 35.40856 | -105.33368 | 38213 ft | 366 kts | 79° |
| 2026-05-04 07:30 | 35.40930 | -105.30233 | 38434 ft | 369 kts | 79° |
| 2026-05-04 07:30 | 35.41003 | -105.27074 | 38673 ft | 372 kts | 79° |
| 2026-05-04 07:31 | 35.41071 | -105.23893 | 38878 ft | 374 kts | 79° |
| 2026-05-04 07:31 | 35.41134 | -105.20709 | 39102 ft | 374 kts | 79° |
| 2026-05-04 07:33 | 35.41346 | -104.98579 | 40814 ft | 367 kts | 84° |
| 2026-05-04 07:33 | 35.41345 | -104.95417 | 40843 ft | 377 kts | 84° |
| 2026-05-04 07:33 | 35.41346 | -104.88823 | 40857 ft | 399 kts | 84° |
| 2026-05-04 07:34 | 35.41349 | -104.85365 | 40843 ft | 412 kts | 84° |
| 2026-05-04 07:34 | 35.41355 | -104.81803 | 40853 ft | 425 kts | 84° |
| 2026-05-04 07:34 | 35.41363 | -104.78178 | 40870 ft | 437 kts | 84° |
| 2026-05-04 07:34 | 35.41372 | -104.74352 | 40874 ft | 450 kts | 84° |
| 2026-05-04 07:35 | 35.41383 | -104.70461 | 40866 ft | 463 kts | 85° |
| 2026-05-04 07:35 | 35.41395 | -104.66516 | 40863 ft | 475 kts | 85° |
| 2026-05-04 07:35 | 35.41408 | -104.62352 | 40848 ft | 488 kts | 85° |
| 2026-05-04 07:35 | 35.41420 | -104.58206 | 40850 ft | 500 kts | 85° |
| 2026-05-04 07:36 | 35.41433 | -104.53891 | 40847 ft | 511 kts | 85° |
| 2026-05-04 07:36 | 35.41445 | -104.49486 | 40837 ft | 523 kts | 85° |
| 2026-05-04 07:38 | 35.41499 | -104.16093 | 40832 ft | 593 kts | 86° |
| 2026-05-04 07:38 | 35.41498 | -104.11002 | 40830 ft | 602 kts | 86° |
| 2026-05-04 07:38 | 35.41196 | -104.00608 | 40804 ft | 620 kts | 95° |
| 2026-05-04 07:39 | 35.39611 | -103.90123 | 40819 ft | 629 kts | 107° |
| 2026-05-04 07:39 | 35.36222 | -103.80325 | 40869 ft | 622 kts | 118° |
| 2026-05-04 07:40 | 35.32145 | -103.71033 | 40924 ft | 618 kts | 121° |
| 2026-05-04 07:40 | 35.27955 | -103.61825 | 40951 ft | 619 kts | 121° |
| 2026-05-04 07:41 | 35.23753 | -103.52625 | 40958 ft | 619 kts | 121° |
| 2026-05-04 07:41 | 35.20270 | -103.44996 | 40938 ft | 617 kts | 121° |
| 2026-05-04 07:42 | 35.16096 | -103.35855 | 40899 ft | 615 kts | 121° |
| 2026-05-04 07:42 | 35.11962 | -103.26702 | 40836 ft | 616 kts | 119° |
| 2026-05-04 07:43 | 35.08942 | -103.16903 | 40842 ft | 618 kts | 102° |
| 2026-05-04 07:43 | 35.07502 | -103.06595 | 40856 ft | 614 kts | 95° |
| 2026-05-04 07:44 | 35.06003 | -102.96334 | 40848 ft | 615 kts | 103° |
| 2026-05-04 07:44 | 35.03627 | -102.86277 | 40878 ft | 620 kts | 105° |
| 2026-05-04 07:45 | 35.01649 | -102.76049 | 40883 ft | 618 kts | 99° |
| 2026-05-04 07:45 | 34.99621 | -102.65903 | 40891 ft | 614 kts | 104° |
| 2026-05-04 07:46 | 34.97518 | -102.55819 | 40915 ft | 614 kts | 101° |
| 2026-05-04 07:46 | 34.95524 | -102.45693 | 40945 ft | 615 kts | 103° |
| 2026-05-04 07:47 | 34.93383 | -102.35603 | 40967 ft | 612 kts | 102° |
| 2026-05-04 07:49 | 34.85109 | -101.95546 | 40862 ft | 609 kts | 103° |
| 2026-05-04 07:49 | 34.83040 | -101.85576 | 40843 ft | 607 kts | 103° |
| 2026-05-04 07:50 | 34.80935 | -101.75617 | 40844 ft | 608 kts | 103° |
| 2026-05-04 07:50 | 34.78829 | -101.65638 | 40857 ft | 609 kts | 103° |
| 2026-05-04 07:51 | 34.76724 | -101.55714 | 40850 ft | 604 kts | 103° |
| 2026-05-04 07:51 | 34.74615 | -101.45839 | 40847 ft | 604 kts | 103° |
| 2026-05-04 07:52 | 34.72503 | -101.35950 | 40842 ft | 605 kts | 103° |
| 2026-05-04 07:52 | 34.70384 | -101.26112 | 40847 ft | 607 kts | 104° |
| 2026-05-04 07:54 | 34.61785 | -100.86535 | 40853 ft | 606 kts | 104° |
| 2026-05-04 07:55 | 34.59616 | -100.76651 | 40851 ft | 606 kts | 104° |
| 2026-05-04 07:55 | 34.57438 | -100.66777 | 40855 ft | 606 kts | 104° |
| 2026-05-04 07:56 | 34.55251 | -100.56903 | 40892 ft | 606 kts | 104° |
| 2026-05-04 07:56 | 34.53062 | -100.47055 | 40853 ft | 603 kts | 104° |
| 2026-05-04 07:57 | 34.50869 | -100.37234 | 40849 ft | 604 kts | 104° |
| 2026-05-04 07:57 | 34.48664 | -100.27401 | 40858 ft | 605 kts | 104° |
| 2026-05-04 07:58 | 34.46453 | -100.17576 | 40866 ft | 605 kts | 104° |
| 2026-05-04 07:58 | 34.44237 | -100.07773 | 40929 ft | 602 kts | 104° |
| 2026-05-04 07:59 | 34.42033 | -99.98064 | 40907 ft | 602 kts | 104° |
| 2026-05-04 07:59 | 34.39804 | -99.88278 | 40886 ft | 603 kts | 105° |
| 2026-05-04 08:00 | 34.37566 | -99.78497 | 40865 ft | 603 kts | 105° |
| 2026-05-04 08:02 | 34.28830 | -99.39379 | 40872 ft | 602 kts | 104° |
| 2026-05-04 08:02 | 34.26649 | -99.29604 | 40880 ft | 602 kts | 104° |
| 2026-05-04 08:03 | 34.24547 | -99.19817 | 40890 ft | 602 kts | 104° |
| 2026-05-04 08:03 | 34.22366 | -99.10052 | 40897 ft | 602 kts | 104° |
| 2026-05-04 08:04 | 34.20230 | -99.00273 | 40905 ft | 602 kts | 104° |
| 2026-05-04 08:04 | 34.18049 | -98.90511 | 40906 ft | 602 kts | 104° |
| 2026-05-04 08:05 | 34.15882 | -98.80743 | 40867 ft | 602 kts | 104° |
| 2026-05-04 08:05 | 34.13700 | -98.71001 | 40935 ft | 600 kts | 104° |
| 2026-05-04 08:06 | 34.11532 | -98.61343 | 40942 ft | 600 kts | 104° |
| 2026-05-04 08:06 | 34.09347 | -98.51639 | 40942 ft | 600 kts | 104° |
| 2026-05-04 08:08 | 34.00516 | -98.12854 | 40947 ft | 599 kts | 104° |
| 2026-05-04 08:11 | 33.90451 | -97.69381 | 40960 ft | 598 kts | 105° |
| 2026-05-04 08:11 | 33.87427 | -97.54831 | 40973 ft | 597 kts | 98° |
| 2026-05-04 08:12 | 33.86055 | -97.44975 | 40980 ft | 598 kts | 98° |
| 2026-05-04 08:12 | 33.84501 | -97.35150 | 40980 ft | 598 kts | 98° |
| 2026-05-04 08:13 | 33.83062 | -97.25313 | 40983 ft | 597 kts | 98° |
| 2026-05-04 08:13 | 33.81536 | -97.15487 | 40984 ft | 598 kts | 99° |
| 2026-05-04 08:14 | 33.80056 | -97.05720 | 40990 ft | 598 kts | 98° |
| 2026-05-04 08:16 | 33.73956 | -96.66466 | 41007 ft | 596 kts | 99° |
| 2026-05-04 08:16 | 33.72425 | -96.56682 | 41012 ft | 596 kts | 99° |
| 2026-05-04 08:17 | 33.70871 | -96.46899 | 40998 ft | 596 kts | 99° |
| 2026-05-04 08:17 | 33.69321 | -96.37117 | 41002 ft | 596 kts | 99° |
| 2026-05-04 08:19 | 33.63022 | -95.98034 | 41017 ft | 596 kts | 99° |
| 2026-05-04 08:20 | 33.61429 | -95.88266 | 41024 ft | 596 kts | 99° |
| 2026-05-04 08:20 | 33.59827 | -95.78508 | 41026 ft | 596 kts | 99° |
| 2026-05-04 08:21 | 33.58218 | -95.68742 | 41033 ft | 597 kts | 99° |
| 2026-05-04 08:21 | 33.56597 | -95.58975 | 41028 ft | 597 kts | 99° |
| 2026-05-04 08:22 | 33.54973 | -95.49222 | 41022 ft | 595 kts | 99° |
| 2026-05-04 08:24 | 33.45646 | -95.11097 | 41038 ft | 597 kts | 107° |
| 2026-05-04 08:24 | 33.43240 | -95.01579 | 41040 ft | 597 kts | 106° |
| 2026-05-04 08:25 | 33.40781 | -94.92079 | 41032 ft | 599 kts | 107° |
| 2026-05-04 08:25 | 33.38332 | -94.82565 | 41040 ft | 598 kts | 106° |
| 2026-05-04 08:27 | 33.28447 | -94.44598 | 41047 ft | 600 kts | 107° |
| 2026-05-04 08:28 | 33.25955 | -94.35080 | 41049 ft | 600 kts | 107° |
| 2026-05-04 08:28 | 33.23446 | -94.25578 | 41052 ft | 600 kts | 107° |
| 2026-05-04 08:29 | 33.20938 | -94.16076 | 41046 ft | 601 kts | 107° |
| 2026-05-04 08:31 | 33.10617 | -93.79940 | 41076 ft | 601 kts | 109° |
| 2026-05-04 08:33 | 32.99223 | -93.42586 | 41067 ft | 599 kts | 110° |
| 2026-05-04 08:35 | 32.87752 | -93.05403 | 41074 ft | 599 kts | 110° |
| 2026-05-04 08:35 | 32.84860 | -92.96100 | 41057 ft | 599 kts | 110° |
| 2026-05-04 08:37 | 32.74708 | -92.63669 | 41080 ft | 599 kts | 110° |
| 2026-05-04 08:38 | 32.71791 | -92.54413 | 41080 ft | 598 kts | 110° |
| 2026-05-04 08:38 | 32.68865 | -92.45156 | 41084 ft | 598 kts | 110° |
| 2026-05-04 08:40 | 32.57105 | -92.08227 | 41087 ft | 597 kts | 111° |
| 2026-05-04 08:41 | 32.54152 | -91.99021 | 41085 ft | 597 kts | 111° |
| 2026-05-04 08:41 | 32.51192 | -91.89821 | 41099 ft | 598 kts | 111° |
| 2026-05-04 08:42 | 32.48226 | -91.80630 | 41115 ft | 597 kts | 111° |
| 2026-05-04 08:42 | 32.45253 | -91.71443 | 41113 ft | 597 kts | 111° |
| 2026-05-04 08:43 | 32.42319 | -91.62251 | 41100 ft | 597 kts | 108° |
| 2026-05-04 08:43 | 32.40484 | -91.52689 | 41128 ft | 595 kts | 98° |
| 2026-05-04 08:44 | 32.38888 | -91.43061 | 41121 ft | 597 kts | 101° |
| 2026-05-04 08:46 | 32.32068 | -91.04733 | 41132 ft | 595 kts | 100° |
| 2026-05-04 08:46 | 32.30314 | -90.95170 | 41129 ft | 595 kts | 101° |
| 2026-05-04 08:47 | 32.28614 | -90.85596 | 41096 ft | 595 kts | 100° |
| 2026-05-04 08:47 | 32.26868 | -90.76027 | 41127 ft | 596 kts | 101° |
| 2026-05-04 08:48 | 32.25131 | -90.66446 | 41107 ft | 596 kts | 101° |
| 2026-05-04 08:48 | 32.23383 | -90.56872 | 41102 ft | 596 kts | 101° |
| 2026-05-04 08:49 | 32.21622 | -90.47300 | 41101 ft | 596 kts | 101° |
| 2026-05-04 08:50 | 32.15418 | -90.13808 | 41106 ft | 597 kts | 101° |
| 2026-05-04 08:51 | 32.13638 | -90.04304 | 41107 ft | 597 kts | 101° |
| 2026-05-04 08:51 | 32.11829 | -89.94677 | 41114 ft | 598 kts | 101° |
| 2026-05-04 08:52 | 32.10031 | -89.85165 | 41116 ft | 598 kts | 101° |
| 2026-05-04 08:52 | 32.08219 | -89.75601 | 41115 ft | 598 kts | 101° |
| 2026-05-04 08:54 | 32.00904 | -89.37455 | 41113 ft | 596 kts | 102° |
| 2026-05-04 08:55 | 31.99059 | -89.27933 | 41109 ft | 596 kts | 102° |
| 2026-05-04 08:55 | 31.97204 | -89.18410 | 41112 ft | 597 kts | 102° |
| 2026-05-04 09:01 | 31.77542 | -88.18548 | 41123 ft | 596 kts | 102° |
| 2026-05-04 09:01 | 31.75646 | -88.09070 | 41133 ft | 596 kts | 102° |
| 2026-05-04 09:02 | 31.73738 | -87.99586 | 41122 ft | 597 kts | 102° |
| 2026-05-04 09:02 | 31.71822 | -87.90106 | 41125 ft | 597 kts | 102° |
| 2026-05-04 09:03 | 31.69900 | -87.80624 | 41126 ft | 597 kts | 102° |
| 2026-05-04 09:03 | 31.67971 | -87.71156 | 41126 ft | 597 kts | 102° |
| 2026-05-04 09:04 | 31.66034 | -87.61676 | 41126 ft | 598 kts | 102° |
| 2026-05-04 09:04 | 31.64085 | -87.52189 | 41128 ft | 597 kts | 103° |
| 2026-05-04 09:05 | 31.62135 | -87.42720 | 41126 ft | 597 kts | 103° |
| 2026-05-04 09:05 | 31.60175 | -87.33252 | 41130 ft | 597 kts | 103° |
| 2026-05-04 09:06 | 31.58207 | -87.23776 | 41126 ft | 598 kts | 103° |
| 2026-05-04 09:08 | 31.50259 | -86.85906 | 41114 ft | 599 kts | 103° |
| 2026-05-04 09:08 | 31.48256 | -86.76443 | 41094 ft | 598 kts | 103° |
| 2026-05-04 09:09 | 31.46246 | -86.66993 | 41108 ft | 598 kts | 103° |
| 2026-05-04 09:09 | 31.44241 | -86.57603 | 41094 ft | 599 kts | 103° |
| 2026-05-04 09:10 | 31.42214 | -86.48146 | 41110 ft | 599 kts | 103° |
| 2026-05-04 09:10 | 31.40178 | -86.38690 | 41109 ft | 599 kts | 103° |
| 2026-05-04 09:11 | 31.38133 | -86.29215 | 41119 ft | 601 kts | 103° |
| 2026-05-04 09:11 | 31.36079 | -86.19749 | 41124 ft | 600 kts | 103° |
| 2026-05-04 09:12 | 31.34021 | -86.10288 | 41130 ft | 600 kts | 104° |
| 2026-05-04 09:14 | 31.21817 | -85.74419 | 41108 ft | 597 kts | 123° |
| 2026-05-04 09:14 | 31.17864 | -85.65873 | 41108 ft | 598 kts | 120° |
| 2026-05-04 09:15 | 31.13661 | -85.57497 | 41102 ft | 598 kts | 123° |
| 2026-05-04 09:15 | 31.09577 | -85.49021 | 41121 ft | 599 kts | 120° |
| 2026-05-04 09:17 | 30.90998 | -85.11256 | 41126 ft | 597 kts | 122° |
| 2026-05-04 09:18 | 30.86844 | -85.02885 | 41139 ft | 597 kts | 122° |
| 2026-05-04 09:18 | 30.82699 | -84.94518 | 41123 ft | 596 kts | 122° |
| 2026-05-04 09:19 | 30.78576 | -84.86142 | 41114 ft | 597 kts | 120° |
| 2026-05-04 09:19 | 30.75619 | -84.77118 | 41124 ft | 600 kts | 105° |
| 2026-05-04 09:20 | 30.73630 | -84.67693 | 41137 ft | 600 kts | 104° |
| 2026-05-04 09:20 | 30.71636 | -84.59976 | 41138 ft | 599 kts | 108° |
| 2026-05-04 09:21 | 30.69041 | -84.49161 | 40564 ft | 593 kts | 104° |
| 2026-05-04 09:21 | 30.68316 | -84.46052 | 40043 ft | 587 kts | 105° |
| 2026-05-04 09:21 | 30.67173 | -84.41545 | 39278 ft | 576 kts | 106° |
| 2026-05-04 09:22 | 30.66034 | -84.37140 | 38482 ft | 564 kts | 105° |
| 2026-05-04 09:22 | 30.64987 | -84.32808 | 37737 ft | 550 kts | 104° |
| 2026-05-04 09:22 | 30.63991 | -84.28579 | 37048 ft | 536 kts | 105° |
| 2026-05-04 09:22 | 30.62978 | -84.24467 | 36332 ft | 526 kts | 106° |
| 2026-05-04 09:23 | 30.61949 | -84.20420 | 35651 ft | 519 kts | 106° |
| 2026-05-04 09:23 | 30.60964 | -84.16462 | 34978 ft | 516 kts | 105° |
| 2026-05-04 09:23 | 30.59991 | -84.12449 | 34302 ft | 517 kts | 105° |
| 2026-05-04 09:23 | 30.59006 | -84.08433 | 33577 ft | 519 kts | 106° |
| 2026-05-04 09:25 | 30.54277 | -83.79856 | 28749 ft | 505 kts | 90° |
| 2026-05-04 09:25 | 30.54173 | -83.75814 | 28091 ft | 499 kts | 90° |
| 2026-05-04 09:26 | 30.54054 | -83.71808 | 27434 ft | 494 kts | 90° |
| 2026-05-04 09:26 | 30.53946 | -83.67846 | 26786 ft | 489 kts | 90° |
| 2026-05-04 09:26 | 30.53850 | -83.63926 | 26146 ft | 484 kts | 90° |
| 2026-05-04 09:26 | 30.53751 | -83.60048 | 25516 ft | 478 kts | 90° |
| 2026-05-04 09:27 | 30.53643 | -83.56211 | 24889 ft | 473 kts | 90° |
| 2026-05-04 09:27 | 30.53533 | -83.52419 | 24273 ft | 468 kts | 90° |
| 2026-05-04 09:27 | 30.53430 | -83.48671 | 23810 ft | 460 kts | 90° |
| 2026-05-04 09:27 | 30.53325 | -83.44964 | 23376 ft | 459 kts | 90° |
| 2026-05-04 09:28 | 30.53215 | -83.41280 | 22961 ft | 457 kts | 90° |
| 2026-05-04 09:28 | 30.53104 | -83.37606 | 22549 ft | 454 kts | 90° |
| 2026-05-04 09:28 | 30.52994 | -83.33964 | 22148 ft | 451 kts | 90° |
| 2026-05-04 09:28 | 30.52886 | -83.30345 | 21745 ft | 447 kts | 90° |
| 2026-05-04 09:29 | 30.52777 | -83.26756 | 21346 ft | 444 kts | 90° |
| 2026-05-04 09:29 | 30.52667 | -83.23238 | 20958 ft | 441 kts | 90° |
| 2026-05-04 09:29 | 30.52558 | -83.19698 | 20565 ft | 437 kts | 90° |
| 2026-05-04 09:29 | 30.52449 | -83.16189 | 20178 ft | 434 kts | 90° |
| 2026-05-04 09:30 | 30.52337 | -83.12699 | 19800 ft | 431 kts | 90° |
| 2026-05-04 09:30 | 30.52228 | -83.09245 | 19417 ft | 427 kts | 90° |
| 2026-05-04 09:30 | 30.52119 | -83.05815 | 19040 ft | 424 kts | 90° |
| 2026-05-04 09:30 | 30.52012 | -83.02410 | 18665 ft | 421 kts | 90° |
| 2026-05-04 09:31 | 30.51904 | -82.99030 | 18278 ft | 418 kts | 90° |
| 2026-05-04 09:31 | 30.51795 | -82.95678 | 17889 ft | 414 kts | 90° |
| 2026-05-04 09:31 | 30.51687 | -82.92360 | 17515 ft | 411 kts | 90° |
| 2026-05-04 09:31 | 30.51578 | -82.89044 | 17051 ft | 409 kts | 90° |
| 2026-05-04 09:32 | 30.51469 | -82.85772 | 16672 ft | 404 kts | 90° |
| 2026-05-04 09:32 | 30.51361 | -82.82530 | 16323 ft | 402 kts | 90° |
| 2026-05-04 09:34 | 30.51246 | -82.60369 | 13868 ft | 384 kts | 86° |
| 2026-05-04 09:34 | 30.51366 | -82.57292 | 13507 ft | 381 kts | 85° |
| 2026-05-04 09:34 | 30.51502 | -82.54228 | 13178 ft | 379 kts | 85° |
| 2026-05-04 09:34 | 30.51636 | -82.51188 | 12840 ft | 377 kts | 85° |
| 2026-05-04 09:35 | 30.51759 | -82.48200 | 12509 ft | 375 kts | 86° |
| 2026-05-04 09:35 | 30.51882 | -82.45146 | 12169 ft | 373 kts | 86° |
| 2026-05-04 09:35 | 30.51998 | -82.42155 | 11828 ft | 369 kts | 87° |
| 2026-05-04 09:35 | 30.51737 | -82.39187 | 11502 ft | 370 kts | 99° |
| 2026-05-04 09:37 | 30.48810 | -82.21018 | 8903 ft | 291 kts | 99° |
| 2026-05-04 09:37 | 30.48467 | -82.18738 | 8383 ft | 285 kts | 99° |
| 2026-05-04 09:38 | 30.48128 | -82.16514 | 7869 ft | 272 kts | 99° |
| 2026-05-04 09:38 | 30.47804 | -82.14416 | 7316 ft | 259 kts | 99° |
| 2026-05-04 09:38 | 30.47492 | -82.12388 | 6702 ft | 252 kts | 99° |
| 2026-05-04 09:38 | 30.47188 | -82.10406 | 6066 ft | 247 kts | 99° |
| 2026-05-04 09:39 | 30.46890 | -82.08475 | 5451 ft | 241 kts | 99° |
| 2026-05-04 09:39 | 30.46599 | -82.06581 | 4842 ft | 236 kts | 99° |
| 2026-05-04 09:39 | 30.46315 | -82.04731 | 4233 ft | 231 kts | 99° |
| 2026-05-04 09:39 | 30.46033 | -82.02908 | 3635 ft | 228 kts | 98° |
| 2026-05-04 09:40 | 30.45756 | -82.01116 | 3043 ft | 224 kts | 98° |
| 2026-05-04 09:40 | 30.45485 | -81.99348 | 2447 ft | 222 kts | 98° |
| 2026-05-04 09:40 | 30.45215 | -81.97606 | 2039 ft | 212 kts | 98° |
| 2026-05-04 09:40 | 30.44967 | -81.96033 | 2025 ft | 188 kts | 98° |
| 2026-05-04 09:41 | 30.44751 | -81.94638 | 2015 ft | 163 kts | 98° |
| 2026-05-04 09:42 | 30.44587 | -81.86353 | 1554 ft | 151 kts | 70° |
| 2026-05-04 09:43 | 30.44913 | -81.85220 | 1262 ft | 146 kts | 70° |
| 2026-05-04 09:43 | 30.45242 | -81.84128 | 1056 ft | 141 kts | 69° |
| 2026-05-04 09:43 | 30.45596 | -81.83093 | 957 ft | 134 kts | 66° |
| 2026-05-04 09:43 | 30.45990 | -81.82126 | 863 ft | 129 kts | 67° |
| 2026-05-04 09:44 | 30.46276 | -81.81153 | 764 ft | 132 kts | 71° |
| 2026-05-04 09:44 | 30.46548 | -81.80136 | 824 ft | 131 kts | 73° |
| 2026-05-04 09:44 | 30.46834 | -81.79110 | 896 ft | 137 kts | 70° |
| 2026-05-04 09:46 | 30.48935 | -81.72277 | 517 ft | 139 kts | 70° |
| 2026-05-04 09:46 | 30.49259 | -81.71221 | 290 ft | 138 kts | 71° |
| 2026-05-04 09:46 | 30.49565 | -81.70194 | 127 ft | 133 kts | 70° |
| 2026-05-04 09:47 | 30.49861 | -81.69207 | 35 ft | 119 kts | 71° |
| 2026-05-04 09:47 | 30.50095 | -81.68438 | 35 ft | 74 kts | 70° |
| 2026-05-04 09:49 | 30.49772 | -81.67790 | 32 ft | 6 kts | 185° |
| 2026-05-04 09:49 | 30.49726 | -81.67800 | 32 ft | 8 kts | 191° |
| 2026-05-04 09:49 | 30.49696 | -81.67806 | 32 ft | 0 kts | 191° |